sensor_id;sensor_type;location;lat;lon;timestamp;P1;durP1;ratioP1;P2;durP2;ratioP2
16248;SDS011;8232;51.678;6.610;2022-08-07T00:01:50;4.97;;;4.03;;
16248;SDS011;8232;51.678;6.610;2022-08-07T00:04:18;4.50;;;3.92;;
16248;SDS011;8232;51.678;6.610;2022-08-07T00:06:45;5.03;;;3.90;;
16248;SDS011;8232;51.678;6.610;2022-08-07T00:09:12;5.00;;;4.20;;
16248;SDS011;8232;51.678;6.610;2022-08-07T00:11:39;6.25;;;4.40;;
16248;SDS011;8232;51.678;6.610;2022-08-07T00:14:05;5.18;;;4.63;;
16248;SDS011;8232;51.678;6.610;2022-08-07T00:16:32;6.97;;;4.50;;
16248;SDS011;8232;51.678;6.610;2022-08-07T00:18:59;5.13;;;4.43;;
16248;SDS011;8232;51.678;6.610;2022-08-07T00:21:27;5.45;;;4.20;;
16248;SDS011;8232;51.678;6.610;2022-08-07T00:23:54;8.93;;;4.55;;
16248;SDS011;8232;51.678;6.610;2022-08-07T00:26:21;8.65;;;4.68;;
16248;SDS011;8232;51.678;6.610;2022-08-07T00:28:48;5.07;;;4.57;;
16248;SDS011;8232;51.678;6.610;2022-08-07T00:31:15;5.20;;;4.55;;
16248;SDS011;8232;51.678;6.610;2022-08-07T00:33:42;15.35;;;5.00;;
16248;SDS011;8232;51.678;6.610;2022-08-07T00:36:09;5.88;;;4.93;;
16248;SDS011;8232;51.678;6.610;2022-08-07T00:38:37;5.65;;;4.85;;
16248;SDS011;8232;51.678;6.610;2022-08-07T00:41:04;6.90;;;4.70;;
16248;SDS011;8232;51.678;6.610;2022-08-07T00:43:31;5.72;;;4.90;;
16248;SDS011;8232;51.678;6.610;2022-08-07T00:45:58;5.70;;;4.70;;
16248;SDS011;8232;51.678;6.610;2022-08-07T00:48:26;6.72;;;4.68;;
16248;SDS011;8232;51.678;6.610;2022-08-07T00:50:54;6.07;;;5.45;;
16248;SDS011;8232;51.678;6.610;2022-08-07T00:53:21;8.70;;;5.55;;
16248;SDS011;8232;51.678;6.610;2022-08-07T00:55:49;6.03;;;5.10;;
16248;SDS011;8232;51.678;6.610;2022-08-07T00:58:17;9.73;;;5.97;;
16248;SDS011;8232;51.678;6.610;2022-08-07T01:00:45;7.85;;;5.53;;
16248;SDS011;8232;51.678;6.610;2022-08-07T01:03:12;7.10;;;5.28;;
16248;SDS011;8232;51.678;6.610;2022-08-07T01:05:39;5.82;;;5.00;;
16248;SDS011;8232;51.678;6.610;2022-08-07T01:08:07;8.40;;;5.85;;
16248;SDS011;8232;51.678;6.610;2022-08-07T01:10:35;7.72;;;5.70;;
16248;SDS011;8232;51.678;6.610;2022-08-07T01:13:04;8.85;;;6.10;;
16248;SDS011;8232;51.678;6.610;2022-08-07T01:15:31;6.40;;;5.20;;
16248;SDS011;8232;51.678;6.610;2022-08-07T01:18:00;6.50;;;5.45;;
16248;SDS011;8232;51.678;6.610;2022-08-07T01:20:30;7.40;;;5.00;;
16248;SDS011;8232;51.678;6.610;2022-08-07T01:23:01;7.95;;;5.20;;
16248;SDS011;8232;51.678;6.610;2022-08-07T01:25:28;5.50;;;4.75;;
16248;SDS011;8232;51.678;6.610;2022-08-07T01:27:55;5.80;;;5.20;;
16248;SDS011;8232;51.678;6.610;2022-08-07T01:30:23;5.78;;;5.10;;
16248;SDS011;8232;51.678;6.610;2022-08-07T01:32:52;7.20;;;6.10;;
16248;SDS011;8232;51.678;6.610;2022-08-07T01:35:19;7.07;;;5.20;;
16248;SDS011;8232;51.678;6.610;2022-08-07T01:37:46;5.85;;;5.25;;
16248;SDS011;8232;51.678;6.610;2022-08-07T01:40:15;8.68;;;5.90;;
16248;SDS011;8232;51.678;6.610;2022-08-07T01:42:45;8.40;;;5.20;;
16248;SDS011;8232;51.678;6.610;2022-08-07T01:45:12;7.00;;;6.25;;
16248;SDS011;8232;51.678;6.610;2022-08-07T01:47:39;6.53;;;5.18;;
16248;SDS011;8232;51.678;6.610;2022-08-07T01:50:06;7.57;;;5.30;;
16248;SDS011;8232;51.678;6.610;2022-08-07T01:52:34;8.98;;;6.03;;
16248;SDS011;8232;51.678;6.610;2022-08-07T01:55:04;6.90;;;5.22;;
16248;SDS011;8232;51.678;6.610;2022-08-07T01:57:37;6.97;;;5.25;;
16248;SDS011;8232;51.678;6.610;2022-08-07T02:00:07;6.07;;;5.20;;
16248;SDS011;8232;51.678;6.610;2022-08-07T02:02:37;6.95;;;5.20;;
16248;SDS011;8232;51.678;6.610;2022-08-07T02:05:08;8.57;;;5.60;;
16248;SDS011;8232;51.678;6.610;2022-08-07T02:07:38;7.80;;;5.60;;
16248;SDS011;8232;51.678;6.610;2022-08-07T02:10:11;8.25;;;5.60;;
16248;SDS011;8232;51.678;6.610;2022-08-07T02:12:41;13.27;;;6.43;;
16248;SDS011;8232;51.678;6.610;2022-08-07T02:15:10;6.47;;;5.40;;
16248;SDS011;8232;51.678;6.610;2022-08-07T02:17:38;8.18;;;5.88;;
16248;SDS011;8232;51.678;6.610;2022-08-07T02:20:07;9.80;;;5.88;;
16248;SDS011;8232;51.678;6.610;2022-08-07T02:22:36;8.20;;;5.72;;
16248;SDS011;8232;51.678;6.610;2022-08-07T02:25:05;10.40;;;5.63;;
16248;SDS011;8232;51.678;6.610;2022-08-07T02:27:33;11.95;;;5.70;;
16248;SDS011;8232;51.678;6.610;2022-08-07T02:30:03;8.80;;;6.32;;
16248;SDS011;8232;51.678;6.610;2022-08-07T02:32:31;13.68;;;5.70;;
16248;SDS011;8232;51.678;6.610;2022-08-07T02:35:00;9.25;;;5.80;;
16248;SDS011;8232;51.678;6.610;2022-08-07T02:37:30;6.35;;;5.75;;
16248;SDS011;8232;51.678;6.610;2022-08-07T02:39:58;7.25;;;6.30;;
16248;SDS011;8232;51.678;6.610;2022-08-07T02:42:27;10.35;;;6.13;;
16248;SDS011;8232;51.678;6.610;2022-08-07T02:44:55;8.43;;;5.95;;
16248;SDS011;8232;51.678;6.610;2022-08-07T02:47:24;8.82;;;6.70;;
16248;SDS011;8232;51.678;6.610;2022-08-07T02:49:51;11.90;;;6.68;;
16248;SDS011;8232;51.678;6.610;2022-08-07T02:52:20;7.97;;;6.20;;
16248;SDS011;8232;51.678;6.610;2022-08-07T02:54:51;6.93;;;6.03;;
16248;SDS011;8232;51.678;6.610;2022-08-07T02:57:20;7.60;;;6.50;;
16248;SDS011;8232;51.678;6.610;2022-08-07T02:59:48;8.25;;;7.00;;
16248;SDS011;8232;51.678;6.610;2022-08-07T03:02:15;9.05;;;6.38;;
16248;SDS011;8232;51.678;6.610;2022-08-07T03:04:44;8.55;;;6.53;;
16248;SDS011;8232;51.678;6.610;2022-08-07T03:07:12;6.55;;;5.82;;
16248;SDS011;8232;51.678;6.610;2022-08-07T03:09:40;8.88;;;5.65;;
16248;SDS011;8232;51.678;6.610;2022-08-07T03:12:08;7.65;;;6.45;;
16248;SDS011;8232;51.678;6.610;2022-08-07T03:14:36;6.60;;;5.85;;
16248;SDS011;8232;51.678;6.610;2022-08-07T03:17:04;7.50;;;6.35;;
16248;SDS011;8232;51.678;6.610;2022-08-07T03:19:32;12.85;;;6.18;;
16248;SDS011;8232;51.678;6.610;2022-08-07T03:22:01;9.82;;;6.60;;
16248;SDS011;8232;51.678;6.610;2022-08-07T03:24:29;13.20;;;6.35;;
16248;SDS011;8232;51.678;6.610;2022-08-07T03:26:58;10.57;;;6.63;;
16248;SDS011;8232;51.678;6.610;2022-08-07T03:29:27;6.75;;;6.05;;
16248;SDS011;8232;51.678;6.610;2022-08-07T03:31:58;7.20;;;6.22;;
16248;SDS011;8232;51.678;6.610;2022-08-07T03:34:26;10.40;;;7.13;;
16248;SDS011;8232;51.678;6.610;2022-08-07T03:36:54;7.10;;;6.03;;
16248;SDS011;8232;51.678;6.610;2022-08-07T03:39:24;9.95;;;7.20;;
16248;SDS011;8232;51.678;6.610;2022-08-07T03:41:52;6.82;;;6.03;;
16248;SDS011;8232;51.678;6.610;2022-08-07T03:44:19;8.60;;;6.90;;
16248;SDS011;8232;51.678;6.610;2022-08-07T03:46:47;9.23;;;7.30;;
16248;SDS011;8232;51.678;6.610;2022-08-07T03:49:14;8.15;;;7.28;;
16248;SDS011;8232;51.678;6.610;2022-08-07T03:51:41;9.43;;;7.15;;
16248;SDS011;8232;51.678;6.610;2022-08-07T03:54:09;7.68;;;6.88;;
16248;SDS011;8232;51.678;6.610;2022-08-07T03:56:37;7.25;;;6.55;;
16248;SDS011;8232;51.678;6.610;2022-08-07T03:59:05;11.23;;;7.38;;
16248;SDS011;8232;51.678;6.610;2022-08-07T04:01:33;8.35;;;7.18;;
16248;SDS011;8232;51.678;6.610;2022-08-07T04:04:01;10.63;;;6.93;;
16248;SDS011;8232;51.678;6.610;2022-08-07T04:06:28;7.68;;;6.85;;
16248;SDS011;8232;51.678;6.610;2022-08-07T04:08:55;7.63;;;6.75;;
16248;SDS011;8232;51.678;6.610;2022-08-07T04:11:22;8.48;;;6.97;;
16248;SDS011;8232;51.678;6.610;2022-08-07T04:13:51;7.60;;;6.53;;
16248;SDS011;8232;51.678;6.610;2022-08-07T04:16:18;9.50;;;6.78;;
16248;SDS011;8232;51.678;6.610;2022-08-07T04:18:45;7.45;;;6.63;;
16248;SDS011;8232;51.678;6.610;2022-08-07T04:21:12;7.47;;;6.57;;
16248;SDS011;8232;51.678;6.610;2022-08-07T04:23:39;7.57;;;6.82;;
16248;SDS011;8232;51.678;6.610;2022-08-07T04:26:08;7.15;;;6.45;;
16248;SDS011;8232;51.678;6.610;2022-08-07T04:28:34;7.93;;;6.68;;
16248;SDS011;8232;51.678;6.610;2022-08-07T04:31:03;7.68;;;6.78;;
16248;SDS011;8232;51.678;6.610;2022-08-07T04:33:30;8.25;;;6.90;;
16248;SDS011;8232;51.678;6.610;2022-08-07T04:35:57;10.32;;;8.00;;
16248;SDS011;8232;51.678;6.610;2022-08-07T04:38:24;10.93;;;9.15;;
16248;SDS011;8232;51.678;6.610;2022-08-07T04:40:52;12.57;;;9.32;;
16248;SDS011;8232;51.678;6.610;2022-08-07T04:43:21;14.20;;;9.00;;
16248;SDS011;8232;51.678;6.610;2022-08-07T04:45:52;9.32;;;8.30;;
16248;SDS011;8232;51.678;6.610;2022-08-07T04:48:29;10.43;;;8.48;;
16248;SDS011;8232;51.678;6.610;2022-08-07T04:51:06;12.20;;;8.25;;
16248;SDS011;8232;51.678;6.610;2022-08-07T04:53:38;9.77;;;7.85;;
16248;SDS011;8232;51.678;6.610;2022-08-07T04:56:14;10.00;;;7.53;;
16248;SDS011;8232;51.678;6.610;2022-08-07T04:58:47;15.90;;;6.63;;
16248;SDS011;8232;51.678;6.610;2022-08-07T05:01:19;9.38;;;6.40;;
16248;SDS011;8232;51.678;6.610;2022-08-07T05:03:58;9.98;;;6.95;;
16248;SDS011;8232;51.678;6.610;2022-08-07T05:06:34;7.53;;;6.40;;
16248;SDS011;8232;51.678;6.610;2022-08-07T05:09:07;7.35;;;6.57;;
16248;SDS011;8232;51.678;6.610;2022-08-07T05:11:39;8.98;;;6.25;;
16248;SDS011;8232;51.678;6.610;2022-08-07T05:14:11;7.40;;;6.10;;
16248;SDS011;8232;51.678;6.610;2022-08-07T05:16:41;7.43;;;6.45;;
16248;SDS011;8232;51.678;6.610;2022-08-07T05:19:13;8.10;;;6.43;;
16248;SDS011;8232;51.678;6.610;2022-08-07T05:21:46;7.30;;;6.60;;
16248;SDS011;8232;51.678;6.610;2022-08-07T05:24:15;8.07;;;5.90;;
16248;SDS011;8232;51.678;6.610;2022-08-07T05:26:45;7.85;;;5.80;;
16248;SDS011;8232;51.678;6.610;2022-08-07T05:29:14;8.57;;;6.10;;
16248;SDS011;8232;51.678;6.610;2022-08-07T05:31:43;9.23;;;6.30;;
16248;SDS011;8232;51.678;6.610;2022-08-07T05:34:13;10.05;;;6.57;;
16248;SDS011;8232;51.678;6.610;2022-08-07T05:36:42;11.63;;;5.65;;
16248;SDS011;8232;51.678;6.610;2022-08-07T05:39:14;6.43;;;5.72;;
16248;SDS011;8232;51.678;6.610;2022-08-07T05:41:43;6.53;;;5.60;;
16248;SDS011;8232;51.678;6.610;2022-08-07T05:44:12;5.43;;;4.90;;
16248;SDS011;8232;51.678;6.610;2022-08-07T05:46:40;6.70;;;4.68;;
16248;SDS011;8232;51.678;6.610;2022-08-07T05:49:08;6.05;;;5.13;;
16248;SDS011;8232;51.678;6.610;2022-08-07T05:51:38;7.72;;;4.47;;
16248;SDS011;8232;51.678;6.610;2022-08-07T05:54:06;5.93;;;4.70;;
16248;SDS011;8232;51.678;6.610;2022-08-07T05:56:33;4.50;;;4.10;;
16248;SDS011;8232;51.678;6.610;2022-08-07T05:59:01;6.40;;;4.82;;
16248;SDS011;8232;51.678;6.610;2022-08-07T06:01:33;10.00;;;4.72;;
16248;SDS011;8232;51.678;6.610;2022-08-07T06:04:01;4.45;;;4.05;;
16248;SDS011;8232;51.678;6.610;2022-08-07T06:06:30;4.28;;;3.88;;
16248;SDS011;8232;51.678;6.610;2022-08-07T06:09:00;5.10;;;4.15;;
16248;SDS011;8232;51.678;6.610;2022-08-07T06:11:28;7.53;;;4.45;;
16248;SDS011;8232;51.678;6.610;2022-08-07T06:13:56;6.95;;;4.55;;
16248;SDS011;8232;51.678;6.610;2022-08-07T06:16:25;5.95;;;3.90;;
16248;SDS011;8232;51.678;6.610;2022-08-07T06:18:56;5.47;;;4.00;;
16248;SDS011;8232;51.678;6.610;2022-08-07T06:21:24;5.25;;;3.80;;
16248;SDS011;8232;51.678;6.610;2022-08-07T06:23:52;5.53;;;3.75;;
16248;SDS011;8232;51.678;6.610;2022-08-07T06:26:20;6.13;;;3.42;;
16248;SDS011;8232;51.678;6.610;2022-08-07T06:28:48;4.00;;;3.60;;
16248;SDS011;8232;51.678;6.610;2022-08-07T06:31:16;8.50;;;3.53;;
16248;SDS011;8232;51.678;6.610;2022-08-07T06:33:43;4.68;;;3.80;;
16248;SDS011;8232;51.678;6.610;2022-08-07T06:36:11;6.75;;;3.47;;
16248;SDS011;8232;51.678;6.610;2022-08-07T06:38:38;4.38;;;3.00;;
16248;SDS011;8232;51.678;6.610;2022-08-07T06:41:07;8.10;;;3.42;;
16248;SDS011;8232;51.678;6.610;2022-08-07T06:43:38;10.85;;;4.05;;
16248;SDS011;8232;51.678;6.610;2022-08-07T06:46:07;8.93;;;3.85;;
16248;SDS011;8232;51.678;6.610;2022-08-07T06:48:34;5.20;;;3.63;;
16248;SDS011;8232;51.678;6.610;2022-08-07T06:51:02;5.00;;;2.80;;
16248;SDS011;8232;51.678;6.610;2022-08-07T06:53:33;5.07;;;3.67;;
16248;SDS011;8232;51.678;6.610;2022-08-07T06:56:02;4.05;;;3.65;;
16248;SDS011;8232;51.678;6.610;2022-08-07T06:58:30;4.82;;;3.55;;
16248;SDS011;8232;51.678;6.610;2022-08-07T07:01:00;3.75;;;2.72;;
16248;SDS011;8232;51.678;6.610;2022-08-07T07:03:28;5.47;;;3.30;;
16248;SDS011;8232;51.678;6.610;2022-08-07T07:05:55;7.63;;;3.75;;
16248;SDS011;8232;51.678;6.610;2022-08-07T07:08:23;3.47;;;3.17;;
16248;SDS011;8232;51.678;6.610;2022-08-07T07:10:51;3.47;;;3.17;;
16248;SDS011;8232;51.678;6.610;2022-08-07T07:13:20;4.18;;;3.05;;
16248;SDS011;8232;51.678;6.610;2022-08-07T07:15:53;3.33;;;2.75;;
16248;SDS011;8232;51.678;6.610;2022-08-07T07:18:27;4.15;;;3.20;;
16248;SDS011;8232;51.678;6.610;2022-08-07T07:21:00;5.45;;;3.00;;
16248;SDS011;8232;51.678;6.610;2022-08-07T07:23:31;3.30;;;3.00;;
16248;SDS011;8232;51.678;6.610;2022-08-07T07:26:01;3.67;;;3.28;;
16248;SDS011;8232;51.678;6.610;2022-08-07T07:28:32;4.55;;;2.83;;
16248;SDS011;8232;51.678;6.610;2022-08-07T07:31:03;4.53;;;3.10;;
16248;SDS011;8232;51.678;6.610;2022-08-07T07:33:34;2.85;;;2.53;;
16248;SDS011;8232;51.678;6.610;2022-08-07T07:36:03;4.10;;;3.10;;
16248;SDS011;8232;51.678;6.610;2022-08-07T07:38:32;5.00;;;2.97;;
16248;SDS011;8232;51.678;6.610;2022-08-07T07:41:00;3.88;;;2.70;;
16248;SDS011;8232;51.678;6.610;2022-08-07T07:43:29;4.68;;;3.55;;
16248;SDS011;8232;51.678;6.610;2022-08-07T07:45:57;3.03;;;2.20;;
16248;SDS011;8232;51.678;6.610;2022-08-07T07:48:27;6.25;;;3.10;;
16248;SDS011;8232;51.678;6.610;2022-08-07T07:50:57;4.53;;;2.70;;
16248;SDS011;8232;51.678;6.610;2022-08-07T07:53:25;3.50;;;2.30;;
16248;SDS011;8232;51.678;6.610;2022-08-07T07:55:54;2.90;;;2.10;;
16248;SDS011;8232;51.678;6.610;2022-08-07T07:58:24;3.17;;;2.05;;
16248;SDS011;8232;51.678;6.610;2022-08-07T08:00:54;2.30;;;2.08;;
16248;SDS011;8232;51.678;6.610;2022-08-07T08:03:22;2.33;;;1.73;;
16248;SDS011;8232;51.678;6.610;2022-08-07T08:05:50;4.15;;;2.20;;
16248;SDS011;8232;51.678;6.610;2022-08-07T08:08:19;2.20;;;2.00;;
16248;SDS011;8232;51.678;6.610;2022-08-07T08:10:46;2.22;;;1.70;;
16248;SDS011;8232;51.678;6.610;2022-08-07T08:13:14;4.65;;;2.20;;
16248;SDS011;8232;51.678;6.610;2022-08-07T08:15:41;2.83;;;1.67;;
16248;SDS011;8232;51.678;6.610;2022-08-07T08:18:11;2.47;;;1.77;;
16248;SDS011;8232;51.678;6.610;2022-08-07T08:20:38;2.70;;;1.90;;
16248;SDS011;8232;51.678;6.610;2022-08-07T08:23:06;2.67;;;1.63;;
16248;SDS011;8232;51.678;6.610;2022-08-07T08:25:54;3.13;;;1.77;;
16248;SDS011;8232;51.678;6.610;2022-08-07T08:28:45;2.78;;;1.60;;
16248;SDS011;8232;51.678;6.610;2022-08-07T08:31:17;2.25;;;1.45;;
16248;SDS011;8232;51.678;6.610;2022-08-07T08:33:48;2.00;;;1.48;;
16248;SDS011;8232;51.678;6.610;2022-08-07T08:36:18;2.30;;;1.70;;
16248;SDS011;8232;51.678;6.610;2022-08-07T08:38:47;1.67;;;1.52;;
16248;SDS011;8232;51.678;6.610;2022-08-07T08:41:17;1.40;;;1.30;;
16248;SDS011;8232;51.678;6.610;2022-08-07T08:43:53;2.22;;;1.50;;
16248;SDS011;8232;51.678;6.610;2022-08-07T08:46:40;2.22;;;1.40;;
16248;SDS011;8232;51.678;6.610;2022-08-07T08:49:15;2.08;;;1.45;;
16248;SDS011;8232;51.678;6.610;2022-08-07T08:51:50;1.65;;;1.30;;
16248;SDS011;8232;51.678;6.610;2022-08-07T08:54:23;2.08;;;1.17;;
16248;SDS011;8232;51.678;6.610;2022-08-07T08:56:56;2.92;;;1.10;;
16248;SDS011;8232;51.678;6.610;2022-08-07T08:59:28;1.77;;;1.13;;
16248;SDS011;8232;51.678;6.610;2022-08-07T09:02:09;1.75;;;1.20;;
16248;SDS011;8232;51.678;6.610;2022-08-07T09:04:43;2.97;;;1.25;;
16248;SDS011;8232;51.678;6.610;2022-08-07T09:07:25;3.40;;;1.33;;
16248;SDS011;8232;51.678;6.610;2022-08-07T09:10:03;1.75;;;1.00;;
16248;SDS011;8232;51.678;6.610;2022-08-07T09:12:42;1.63;;;1.45;;
16248;SDS011;8232;51.678;6.610;2022-08-07T09:15:26;2.30;;;0.98;;
16248;SDS011;8232;51.678;6.610;2022-08-07T09:18:08;2.15;;;1.13;;
16248;SDS011;8232;51.678;6.610;2022-08-07T09:20:53;2.25;;;0.95;;
16248;SDS011;8232;51.678;6.610;2022-08-07T09:23:31;1.00;;;0.80;;
16248;SDS011;8232;51.678;6.610;2022-08-07T09:26:13;1.98;;;1.00;;
16248;SDS011;8232;51.678;6.610;2022-08-07T09:28:50;1.30;;;0.80;;
16248;SDS011;8232;51.678;6.610;2022-08-07T09:31:19;2.38;;;0.93;;
16248;SDS011;8232;51.678;6.610;2022-08-07T09:34:05;1.20;;;1.10;;
16248;SDS011;8232;51.678;6.610;2022-08-07T09:36:38;2.20;;;0.90;;
16248;SDS011;8232;51.678;6.610;2022-08-07T09:39:17;2.72;;;1.10;;
16248;SDS011;8232;51.678;6.610;2022-08-07T09:41:53;2.38;;;1.10;;
16248;SDS011;8232;51.678;6.610;2022-08-07T09:44:31;2.35;;;1.38;;
16248;SDS011;8232;51.678;6.610;2022-08-07T09:47:08;3.28;;;1.20;;
16248;SDS011;8232;51.678;6.610;2022-08-07T09:49:47;1.33;;;1.10;;
16248;SDS011;8232;51.678;6.610;2022-08-07T09:52:22;3.58;;;1.00;;
16248;SDS011;8232;51.678;6.610;2022-08-07T09:54:54;2.03;;;1.23;;
16248;SDS011;8232;51.678;6.610;2022-08-07T10:00:43;1.92;;;1.30;;
16248;SDS011;8232;51.678;6.610;2022-08-07T10:03:34;2.17;;;1.05;;
16248;SDS011;8232;51.678;6.610;2022-08-07T10:06:15;1.90;;;1.25;;
16248;SDS011;8232;51.678;6.610;2022-08-07T10:12:11;2.25;;;1.30;;
16248;SDS011;8232;51.678;6.610;2022-08-07T10:14:53;3.25;;;1.33;;
16248;SDS011;8232;51.678;6.610;2022-08-07T10:17:58;8.77;;;1.50;;
16248;SDS011;8232;51.678;6.610;2022-08-07T10:20:44;1.92;;;1.25;;
16248;SDS011;8232;51.678;6.610;2022-08-07T10:23:39;1.88;;;1.05;;
16248;SDS011;8232;51.678;6.610;2022-08-07T10:26:20;2.42;;;1.40;;
16248;SDS011;8232;51.678;6.610;2022-08-07T10:28:58;2.35;;;1.20;;
16248;SDS011;8232;51.678;6.610;2022-08-07T10:31:40;1.58;;;1.10;;
16248;SDS011;8232;51.678;6.610;2022-08-07T10:34:24;3.45;;;1.50;;
16248;SDS011;8232;51.678;6.610;2022-08-07T10:37:05;3.00;;;1.48;;
16248;SDS011;8232;51.678;6.610;2022-08-07T10:39:52;2.80;;;1.33;;
16248;SDS011;8232;51.678;6.610;2022-08-07T10:42:28;1.85;;;1.23;;
16248;SDS011;8232;51.678;6.610;2022-08-07T10:45:00;1.48;;;1.02;;
16248;SDS011;8232;51.678;6.610;2022-08-07T10:47:37;1.67;;;1.08;;
16248;SDS011;8232;51.678;6.610;2022-08-07T10:50:13;1.50;;;1.05;;
16248;SDS011;8232;51.678;6.610;2022-08-07T10:52:50;2.78;;;1.17;;
16248;SDS011;8232;51.678;6.610;2022-08-07T10:55:25;2.42;;;1.00;;
16248;SDS011;8232;51.678;6.610;2022-08-07T10:57:57;2.42;;;1.20;;
16248;SDS011;8232;51.678;6.610;2022-08-07T11:00:33;1.08;;;0.93;;
16248;SDS011;8232;51.678;6.610;2022-08-07T11:03:06;1.75;;;0.98;;
16248;SDS011;8232;51.678;6.610;2022-08-07T11:05:44;2.00;;;0.95;;
16248;SDS011;8232;51.678;6.610;2022-08-07T11:08:19;2.58;;;1.20;;
16248;SDS011;8232;51.678;6.610;2022-08-07T11:10:56;0.90;;;0.80;;
16248;SDS011;8232;51.678;6.610;2022-08-07T11:13:29;2.85;;;1.17;;
16248;SDS011;8232;51.678;6.610;2022-08-07T11:16:03;1.60;;;0.80;;
16248;SDS011;8232;51.678;6.610;2022-08-07T11:18:33;1.92;;;1.10;;
16248;SDS011;8232;51.678;6.610;2022-08-07T11:21:10;1.92;;;0.90;;
16248;SDS011;8232;51.678;6.610;2022-08-07T11:23:51;3.05;;;2.75;;
16248;SDS011;8232;51.678;6.610;2022-08-07T11:26:24;1.75;;;0.90;;
16248;SDS011;8232;51.678;6.610;2022-08-07T11:28:57;1.17;;;0.93;;
16248;SDS011;8232;51.678;6.610;2022-08-07T11:31:31;2.92;;;1.00;;
16248;SDS011;8232;51.678;6.610;2022-08-07T11:34:04;3.38;;;1.00;;
16248;SDS011;8232;51.678;6.610;2022-08-07T11:36:43;1.67;;;0.82;;
16248;SDS011;8232;51.678;6.610;2022-08-07T11:39:22;2.17;;;1.15;;
16248;SDS011;8232;51.678;6.610;2022-08-07T11:42:10;3.92;;;1.10;;
16248;SDS011;8232;51.678;6.610;2022-08-07T11:44:44;1.67;;;1.10;;
16248;SDS011;8232;51.678;6.610;2022-08-07T11:47:22;2.47;;;1.25;;
16248;SDS011;8232;51.678;6.610;2022-08-07T11:50:13;1.75;;;1.20;;
16248;SDS011;8232;51.678;6.610;2022-08-07T11:52:59;3.22;;;1.20;;
16248;SDS011;8232;51.678;6.610;2022-08-07T11:55:37;1.67;;;1.30;;
16248;SDS011;8232;51.678;6.610;2022-08-07T11:58:27;5.20;;;1.23;;
16248;SDS011;8232;51.678;6.610;2022-08-07T12:01:08;2.08;;;1.30;;
16248;SDS011;8232;51.678;6.610;2022-08-07T12:03:49;1.48;;;0.95;;
16248;SDS011;8232;51.678;6.610;2022-08-07T12:06:30;3.40;;;1.10;;
16248;SDS011;8232;51.678;6.610;2022-08-07T12:09:06;2.42;;;1.02;;
16248;SDS011;8232;51.678;6.610;2022-08-07T12:11:39;2.17;;;1.17;;
16248;SDS011;8232;51.678;6.610;2022-08-07T12:14:10;2.05;;;1.00;;
16248;SDS011;8232;51.678;6.610;2022-08-07T12:16:43;2.95;;;1.20;;
16248;SDS011;8232;51.678;6.610;2022-08-07T12:19:15;2.17;;;1.30;;
16248;SDS011;8232;51.678;6.610;2022-08-07T12:21:49;1.42;;;1.17;;
16248;SDS011;8232;51.678;6.610;2022-08-07T12:24:26;1.83;;;1.20;;
16248;SDS011;8232;51.678;6.610;2022-08-07T12:27:00;2.53;;;1.20;;
16248;SDS011;8232;51.678;6.610;2022-08-07T12:29:34;3.08;;;1.35;;
16248;SDS011;8232;51.678;6.610;2022-08-07T12:32:13;4.63;;;1.20;;
16248;SDS011;8232;51.678;6.610;2022-08-07T12:34:44;2.25;;;1.02;;
16248;SDS011;8232;51.678;6.610;2022-08-07T12:37:12;3.65;;;1.20;;
16248;SDS011;8232;51.678;6.610;2022-08-07T12:39:45;1.27;;;1.17;;
16248;SDS011;8232;51.678;6.610;2022-08-07T12:42:17;2.63;;;1.30;;
16248;SDS011;8232;51.678;6.610;2022-08-07T12:44:47;1.55;;;1.23;;
16248;SDS011;8232;51.678;6.610;2022-08-07T12:47:19;5.10;;;1.30;;
16248;SDS011;8232;51.678;6.610;2022-08-07T12:49:56;1.10;;;0.90;;
16248;SDS011;8232;51.678;6.610;2022-08-07T12:52:40;1.95;;;1.08;;
16248;SDS011;8232;51.678;6.610;2022-08-07T12:55:16;2.78;;;1.30;;
16248;SDS011;8232;51.678;6.610;2022-08-07T12:57:50;2.90;;;1.15;;
16248;SDS011;8232;51.678;6.610;2022-08-07T13:00:19;1.80;;;1.15;;
16248;SDS011;8232;51.678;6.610;2022-08-07T13:02:58;1.35;;;1.00;;
16248;SDS011;8232;51.678;6.610;2022-08-07T13:05:40;1.52;;;1.42;;
16248;SDS011;8232;51.678;6.610;2022-08-07T13:08:28;4.72;;;1.42;;
16248;SDS011;8232;51.678;6.610;2022-08-07T13:11:15;3.03;;;1.00;;
16248;SDS011;8232;51.678;6.610;2022-08-07T13:13:56;1.50;;;1.00;;
16248;SDS011;8232;51.678;6.610;2022-08-07T13:16:34;2.13;;;1.50;;
16248;SDS011;8232;51.678;6.610;2022-08-07T13:19:08;1.50;;;1.00;;
16248;SDS011;8232;51.678;6.610;2022-08-07T13:21:44;2.45;;;1.90;;
16248;SDS011;8232;51.678;6.610;2022-08-07T13:24:17;2.67;;;1.50;;
16248;SDS011;8232;51.678;6.610;2022-08-07T13:26:51;3.03;;;1.40;;
16248;SDS011;8232;51.678;6.610;2022-08-07T13:29:23;1.25;;;1.10;;
16248;SDS011;8232;51.678;6.610;2022-08-07T13:31:56;5.45;;;1.45;;
16248;SDS011;8232;51.678;6.610;2022-08-07T13:34:32;2.25;;;1.40;;
16248;SDS011;8232;51.678;6.610;2022-08-07T13:37:07;2.33;;;1.40;;
16248;SDS011;8232;51.678;6.610;2022-08-07T13:39:42;3.83;;;1.35;;
16248;SDS011;8232;51.678;6.610;2022-08-07T13:42:17;2.97;;;1.40;;
16248;SDS011;8232;51.678;6.610;2022-08-07T13:44:48;1.48;;;1.20;;
16248;SDS011;8232;51.678;6.610;2022-08-07T13:47:16;1.42;;;1.23;;
16248;SDS011;8232;51.678;6.610;2022-08-07T13:49:45;2.53;;;1.40;;
16248;SDS011;8232;51.678;6.610;2022-08-07T13:52:14;3.45;;;1.70;;
16248;SDS011;8232;51.678;6.610;2022-08-07T13:54:42;3.95;;;1.50;;
16248;SDS011;8232;51.678;6.610;2022-08-07T13:57:09;3.78;;;1.60;;
16248;SDS011;8232;51.678;6.610;2022-08-07T13:59:41;4.90;;;1.30;;
16248;SDS011;8232;51.678;6.610;2022-08-07T14:02:11;6.35;;;2.00;;
16248;SDS011;8232;51.678;6.610;2022-08-07T14:04:45;1.40;;;1.10;;
16248;SDS011;8232;51.678;6.610;2022-08-07T14:07:16;1.45;;;1.02;;
16248;SDS011;8232;51.678;6.610;2022-08-07T14:09:46;1.52;;;1.30;;
16248;SDS011;8232;51.678;6.610;2022-08-07T14:12:18;3.90;;;1.65;;
16248;SDS011;8232;51.678;6.610;2022-08-07T14:14:51;2.60;;;1.42;;
16248;SDS011;8232;51.678;6.610;2022-08-07T14:17:24;3.63;;;1.55;;
16248;SDS011;8232;51.678;6.610;2022-08-07T14:19:52;1.83;;;1.40;;
16248;SDS011;8232;51.678;6.610;2022-08-07T14:22:23;5.47;;;1.38;;
16248;SDS011;8232;51.678;6.610;2022-08-07T14:24:53;1.40;;;1.10;;
16248;SDS011;8232;51.678;6.610;2022-08-07T14:27:26;2.17;;;1.23;;
16248;SDS011;8232;51.678;6.610;2022-08-07T14:30:03;2.13;;;1.42;;
16248;SDS011;8232;51.678;6.610;2022-08-07T14:32:36;3.00;;;1.52;;
16248;SDS011;8232;51.678;6.610;2022-08-07T14:35:07;2.17;;;1.40;;
16248;SDS011;8232;51.678;6.610;2022-08-07T14:37:35;1.75;;;1.40;;
16248;SDS011;8232;51.678;6.610;2022-08-07T14:40:03;2.78;;;1.35;;
16248;SDS011;8232;51.678;6.610;2022-08-07T14:42:32;4.60;;;1.42;;
16248;SDS011;8232;51.678;6.610;2022-08-07T14:45:03;3.40;;;1.90;;
16248;SDS011;8232;51.678;6.610;2022-08-07T14:47:31;2.67;;;1.20;;
16248;SDS011;8232;51.678;6.610;2022-08-07T14:50:03;2.22;;;1.30;;
16248;SDS011;8232;51.678;6.610;2022-08-07T14:52:31;2.60;;;1.40;;
16248;SDS011;8232;51.678;6.610;2022-08-07T14:54:59;2.75;;;1.90;;
16248;SDS011;8232;51.678;6.610;2022-08-07T14:57:27;3.03;;;1.40;;
16248;SDS011;8232;51.678;6.610;2022-08-07T14:59:57;2.78;;;1.38;;
16248;SDS011;8232;51.678;6.610;2022-08-07T15:02:27;3.67;;;1.40;;
16248;SDS011;8232;51.678;6.610;2022-08-07T15:04:54;1.58;;;1.48;;
16248;SDS011;8232;51.678;6.610;2022-08-07T15:07:22;1.77;;;1.33;;
16248;SDS011;8232;51.678;6.610;2022-08-07T15:09:52;1.75;;;1.30;;
16248;SDS011;8232;51.678;6.610;2022-08-07T15:12:23;2.20;;;1.40;;
16248;SDS011;8232;51.678;6.610;2022-08-07T15:14:54;1.63;;;1.35;;
16248;SDS011;8232;51.678;6.610;2022-08-07T15:17:29;3.35;;;1.63;;
16248;SDS011;8232;51.678;6.610;2022-08-07T15:19:59;4.78;;;1.58;;
16248;SDS011;8232;51.678;6.610;2022-08-07T15:22:33;2.95;;;1.70;;
16248;SDS011;8232;51.678;6.610;2022-08-07T15:25:11;2.00;;;1.20;;
16248;SDS011;8232;51.678;6.610;2022-08-07T15:27:41;1.98;;;1.20;;
16248;SDS011;8232;51.678;6.610;2022-08-07T15:30:11;3.25;;;1.45;;
16248;SDS011;8232;51.678;6.610;2022-08-07T15:32:40;3.05;;;1.63;;
16248;SDS011;8232;51.678;6.610;2022-08-07T15:35:14;4.22;;;1.60;;